Busselton, Australia
Current Conditions -  °F | °C
As of 11:30 PM on Sunday 23 Nov 2014 (Local Time) from YPJT Reporting Station
Clear Clear  
Wind Chill: 55°   Ceiling: Unl
Heat Index: 55°   Visibility: 6mi
Dew Point: 43°   Wind: 12mph
Humidity: 63%   Direction: 180°S
Pressure: 30.12"   Gusts: NA
Location:  33.65°S, 115.35°E
Report Text: YPJT 231530Z AUTO 18010KT 9999 // NCD 13/06 Q1020
Loading
Personal Weather Stations






























Interactive Weather Map New forecast layout! Learn more

10-Day Weather Forecast

Advertisements
Track Severe Weather on mobile